sensor_id;sensor_type;location;lat;lon;timestamp;temperature;humidity
25208;DHT22;13153;52.316;21.166;2024-01-11T00:00:40;-4.40;99.90
25208;DHT22;13153;52.316;21.166;2024-01-11T00:03:06;-4.50;99.90
25208;DHT22;13153;52.316;21.166;2024-01-11T00:05:32;-4.60;99.90
25208;DHT22;13153;52.316;21.166;2024-01-11T00:07:57;-4.60;99.90
25208;DHT22;13153;52.316;21.166;2024-01-11T00:10:23;-4.60;99.90
25208;DHT22;13153;52.316;21.166;2024-01-11T00:12:49;-4.60;99.90
25208;DHT22;13153;52.316;21.166;2024-01-11T00:15:15;-4.60;99.90
25208;DHT22;13153;52.316;21.166;2024-01-11T00:17:40;-4.60;99.90
25208;DHT22;13153;52.316;21.166;2024-01-11T00:20:07;-4.50;99.90
25208;DHT22;13153;52.316;21.166;2024-01-11T00:22:33;-4.50;99.90
25208;DHT22;13153;52.316;21.166;2024-01-11T00:24:58;-4.50;99.90
25208;DHT22;13153;52.316;21.166;2024-01-11T00:27:24;-4.50;99.90
25208;DHT22;13153;52.316;21.166;2024-01-11T00:29:50;-4.60;99.90
25208;DHT22;13153;52.316;21.166;2024-01-11T00:32:16;-4.60;99.90
25208;DHT22;13153;52.316;21.166;2024-01-11T00:34:41;-4.60;99.90
25208;DHT22;13153;52.316;21.166;2024-01-11T00:37:07;-4.60;99.90
25208;DHT22;13153;52.316;21.166;2024-01-11T00:39:33;-4.60;99.90
25208;DHT22;13153;52.316;21.166;2024-01-11T00:41:59;-4.60;99.90
25208;DHT22;13153;52.316;21.166;2024-01-11T00:44:25;-4.70;99.90
25208;DHT22;13153;52.316;21.166;2024-01-11T00:46:50;-4.70;99.90
25208;DHT22;13153;52.316;21.166;2024-01-11T00:49:16;-4.70;99.90
25208;DHT22;13153;52.316;21.166;2024-01-11T00:51:42;-4.70;99.90
25208;DHT22;13153;52.316;21.166;2024-01-11T00:54:07;-4.60;99.90
25208;DHT22;13153;52.316;21.166;2024-01-11T00:56:33;-4.60;99.90
25208;DHT22;13153;52.316;21.166;2024-01-11T00:58:59;-4.60;99.90
25208;DHT22;13153;52.316;21.166;2024-01-11T01:01:24;-4.60;99.90
25208;DHT22;13153;52.316;21.166;2024-01-11T01:03:50;-4.60;99.90
25208;DHT22;13153;52.316;21.166;2024-01-11T01:06:16;-4.60;99.90
25208;DHT22;13153;52.316;21.166;2024-01-11T01:08:42;-4.60;99.90
25208;DHT22;13153;52.316;21.166;2024-01-11T01:11:08;-4.60;99.90
25208;DHT22;13153;52.316;21.166;2024-01-11T01:13:34;-4.50;99.90
25208;DHT22;13153;52.316;21.166;2024-01-11T01:15:59;-4.50;99.90
25208;DHT22;13153;52.316;21.166;2024-01-11T01:18:25;-4.50;99.90
25208;DHT22;13153;52.316;21.166;2024-01-11T01:20:51;-4.50;99.90
25208;DHT22;13153;52.316;21.166;2024-01-11T01:23:17;-4.50;99.90
25208;DHT22;13153;52.316;21.166;2024-01-11T01:25:43;-4.60;99.90
25208;DHT22;13153;52.316;21.166;2024-01-11T01:28:10;-4.50;99.90
25208;DHT22;13153;52.316;21.166;2024-01-11T01:30:36;-4.50;99.90
25208;DHT22;13153;52.316;21.166;2024-01-11T01:33:02;-4.50;99.90
25208;DHT22;13153;52.316;21.166;2024-01-11T01:35:27;-4.50;99.90
25208;DHT22;13153;52.316;21.166;2024-01-11T01:37:53;-4.50;99.90
25208;DHT22;13153;52.316;21.166;2024-01-11T01:40:19;-4.50;99.90
25208;DHT22;13153;52.316;21.166;2024-01-11T01:42:46;-4.50;99.90
25208;DHT22;13153;52.316;21.166;2024-01-11T01:45:12;-4.50;99.90
25208;DHT22;13153;52.316;21.166;2024-01-11T01:47:43;-4.50;99.90
25208;DHT22;13153;52.316;21.166;2024-01-11T01:50:10;-4.60;99.90
25208;DHT22;13153;52.316;21.166;2024-01-11T01:52:39;-4.60;99.90
25208;DHT22;13153;52.316;21.166;2024-01-11T01:55:09;-4.60;99.90
25208;DHT22;13153;52.316;21.166;2024-01-11T01:57:38;-4.60;99.90
25208;DHT22;13153;52.316;21.166;2024-01-11T02:00:08;-4.60;99.90
25208;DHT22;13153;52.316;21.166;2024-01-11T02:02:38;-4.60;99.90
25208;DHT22;13153;52.316;21.166;2024-01-11T02:05:06;-4.60;99.90
25208;DHT22;13153;52.316;21.166;2024-01-11T02:07:32;-4.60;99.90
25208;DHT22;13153;52.316;21.166;2024-01-11T02:09:59;-4.60;99.90
25208;DHT22;13153;52.316;21.166;2024-01-11T02:12:25;-4.60;99.90
25208;DHT22;13153;52.316;21.166;2024-01-11T02:14:53;-4.60;99.90
25208;DHT22;13153;52.316;21.166;2024-01-11T02:17:19;-4.50;99.90
25208;DHT22;13153;52.316;21.166;2024-01-11T02:19:46;-4.60;99.90
25208;DHT22;13153;52.316;21.166;2024-01-11T02:22:24;-4.60;99.90
25208;DHT22;13153;52.316;21.166;2024-01-11T02:24:56;-4.50;99.90
25208;DHT22;13153;52.316;21.166;2024-01-11T02:27:23;-4.50;99.90
25208;DHT22;13153;52.316;21.166;2024-01-11T02:29:49;-4.60;99.90
25208;DHT22;13153;52.316;21.166;2024-01-11T02:32:15;-4.50;99.90
25208;DHT22;13153;52.316;21.166;2024-01-11T02:34:41;-4.50;99.90
25208;DHT22;13153;52.316;21.166;2024-01-11T02:37:08;-4.50;99.90
25208;DHT22;13153;52.316;21.166;2024-01-11T02:39:34;-4.50;99.90
25208;DHT22;13153;52.316;21.166;2024-01-11T02:42:00;-4.50;99.90
25208;DHT22;13153;52.316;21.166;2024-01-11T02:44:27;-4.50;99.90
25208;DHT22;13153;52.316;21.166;2024-01-11T02:46:53;-4.60;99.90
25208;DHT22;13153;52.316;21.166;2024-01-11T02:49:18;-4.60;99.90
25208;DHT22;13153;52.316;21.166;2024-01-11T02:51:44;-4.50;99.90
25208;DHT22;13153;52.316;21.166;2024-01-11T02:54:10;-4.50;99.90
25208;DHT22;13153;52.316;21.166;2024-01-11T02:56:36;-4.50;99.90
25208;DHT22;13153;52.316;21.166;2024-01-11T02:59:02;-4.50;99.90
25208;DHT22;13153;52.316;21.166;2024-01-11T03:01:28;-4.50;99.90
25208;DHT22;13153;52.316;21.166;2024-01-11T03:03:54;-4.50;99.90
25208;DHT22;13153;52.316;21.166;2024-01-11T03:06:21;-4.50;99.90
25208;DHT22;13153;52.316;21.166;2024-01-11T03:08:50;-4.50;99.90
25208;DHT22;13153;52.316;21.166;2024-01-11T03:11:16;-4.60;99.90
25208;DHT22;13153;52.316;21.166;2024-01-11T03:13:42;-4.50;99.90
25208;DHT22;13153;52.316;21.166;2024-01-11T03:16:08;-4.50;99.90
25208;DHT22;13153;52.316;21.166;2024-01-11T03:18:34;-4.50;99.90
25208;DHT22;13153;52.316;21.166;2024-01-11T03:20:59;-4.50;99.90
25208;DHT22;13153;52.316;21.166;2024-01-11T03:23:25;-4.50;99.90
25208;DHT22;13153;52.316;21.166;2024-01-11T03:25:51;-4.50;99.90
25208;DHT22;13153;52.316;21.166;2024-01-11T03:28:17;-4.40;99.90
25208;DHT22;13153;52.316;21.166;2024-01-11T03:30:43;-4.40;99.90
25208;DHT22;13153;52.316;21.166;2024-01-11T03:33:09;-4.50;99.90
25208;DHT22;13153;52.316;21.166;2024-01-11T03:35:34;-4.50;99.90
25208;DHT22;13153;52.316;21.166;2024-01-11T03:38:00;-4.40;99.90
25208;DHT22;13153;52.316;21.166;2024-01-11T03:40:26;-4.40;99.90
25208;DHT22;13153;52.316;21.166;2024-01-11T03:42:52;-4.40;99.90
25208;DHT22;13153;52.316;21.166;2024-01-11T03:45:18;-4.40;99.90
25208;DHT22;13153;52.316;21.166;2024-01-11T03:47:47;-4.40;99.90
25208;DHT22;13153;52.316;21.166;2024-01-11T03:50:12;-4.40;99.90
25208;DHT22;13153;52.316;21.166;2024-01-11T03:52:39;-4.40;99.90
25208;DHT22;13153;52.316;21.166;2024-01-11T03:55:05;-4.40;99.90
25208;DHT22;13153;52.316;21.166;2024-01-11T03:57:31;-4.40;99.90
25208;DHT22;13153;52.316;21.166;2024-01-11T03:59:57;-4.40;99.90
25208;DHT22;13153;52.316;21.166;2024-01-11T04:02:24;-4.40;99.90
25208;DHT22;13153;52.316;21.166;2024-01-11T04:04:50;-4.40;99.90
25208;DHT22;13153;52.316;21.166;2024-01-11T04:07:16;-4.40;99.90
25208;DHT22;13153;52.316;21.166;2024-01-11T04:09:42;-4.40;99.90
25208;DHT22;13153;52.316;21.166;2024-01-11T04:12:08;-4.40;99.90
25208;DHT22;13153;52.316;21.166;2024-01-11T04:14:38;-4.40;99.90
25208;DHT22;13153;52.316;21.166;2024-01-11T04:17:05;-4.40;99.90
25208;DHT22;13153;52.316;21.166;2024-01-11T04:19:31;-4.40;99.90
25208;DHT22;13153;52.316;21.166;2024-01-11T04:21:57;-4.40;99.90
25208;DHT22;13153;52.316;21.166;2024-01-11T04:24:22;-4.40;99.90
25208;DHT22;13153;52.316;21.166;2024-01-11T04:26:48;-4.30;99.90
25208;DHT22;13153;52.316;21.166;2024-01-11T04:29:14;-4.30;99.90
25208;DHT22;13153;52.316;21.166;2024-01-11T04:31:39;-4.30;99.90
25208;DHT22;13153;52.316;21.166;2024-01-11T04:34:05;-4.30;99.90
25208;DHT22;13153;52.316;21.166;2024-01-11T04:36:31;-4.30;99.90
25208;DHT22;13153;52.316;21.166;2024-01-11T04:38:57;-4.30;99.90
25208;DHT22;13153;52.316;21.166;2024-01-11T04:41:22;-4.30;99.90
25208;DHT22;13153;52.316;21.166;2024-01-11T04:43:48;-4.30;99.90
25208;DHT22;13153;52.316;21.166;2024-01-11T04:46:17;-4.40;99.90
25208;DHT22;13153;52.316;21.166;2024-01-11T04:48:45;-4.40;99.90
25208;DHT22;13153;52.316;21.166;2024-01-11T04:51:12;-4.40;99.90
25208;DHT22;13153;52.316;21.166;2024-01-11T04:53:39;-4.40;99.90
25208;DHT22;13153;52.316;21.166;2024-01-11T04:56:10;-4.40;99.90
25208;DHT22;13153;52.316;21.166;2024-01-11T04:58:40;-4.40;99.90
25208;DHT22;13153;52.316;21.166;2024-01-11T05:01:07;-4.40;99.90
25208;DHT22;13153;52.316;21.166;2024-01-11T05:03:37;-4.30;99.90
25208;DHT22;13153;52.316;21.166;2024-01-11T05:06:03;-4.30;99.90
25208;DHT22;13153;52.316;21.166;2024-01-11T05:08:29;-4.30;99.90
25208;DHT22;13153;52.316;21.166;2024-01-11T05:10:55;-4.40;99.90
25208;DHT22;13153;52.316;21.166;2024-01-11T05:13:21;-4.30;99.90
25208;DHT22;13153;52.316;21.166;2024-01-11T05:15:47;-4.30;99.90
25208;DHT22;13153;52.316;21.166;2024-01-11T05:18:13;-4.40;99.90
25208;DHT22;13153;52.316;21.166;2024-01-11T05:20:39;-4.30;99.90
25208;DHT22;13153;52.316;21.166;2024-01-11T05:23:05;-4.30;99.90
25208;DHT22;13153;52.316;21.166;2024-01-11T05:25:31;-4.40;99.90
25208;DHT22;13153;52.316;21.166;2024-01-11T05:27:59;-4.40;99.90
25208;DHT22;13153;52.316;21.166;2024-01-11T05:30:29;-4.30;99.90
25208;DHT22;13153;52.316;21.166;2024-01-11T05:32:55;-4.30;99.90
25208;DHT22;13153;52.316;21.166;2024-01-11T05:35:22;-4.30;99.90
25208;DHT22;13153;52.316;21.166;2024-01-11T05:37:50;-4.20;99.90
25208;DHT22;13153;52.316;21.166;2024-01-11T05:40:16;-4.30;99.90
25208;DHT22;13153;52.316;21.166;2024-01-11T05:42:42;-4.30;99.90
25208;DHT22;13153;52.316;21.166;2024-01-11T05:45:08;-4.30;99.90
25208;DHT22;13153;52.316;21.166;2024-01-11T05:47:34;-4.30;99.90
25208;DHT22;13153;52.316;21.166;2024-01-11T05:49:59;-4.30;99.90
25208;DHT22;13153;52.316;21.166;2024-01-11T05:52:25;-4.30;99.90
25208;DHT22;13153;52.316;21.166;2024-01-11T05:54:51;-4.40;99.90
25208;DHT22;13153;52.316;21.166;2024-01-11T05:57:17;-4.30;99.90
25208;DHT22;13153;52.316;21.166;2024-01-11T05:59:45;-4.30;99.90
25208;DHT22;13153;52.316;21.166;2024-01-11T06:02:12;-4.40;99.90
25208;DHT22;13153;52.316;21.166;2024-01-11T06:04:39;-4.30;99.90
25208;DHT22;13153;52.316;21.166;2024-01-11T06:07:05;-4.30;99.90
25208;DHT22;13153;52.316;21.166;2024-01-11T06:09:31;-4.30;99.90
25208;DHT22;13153;52.316;21.166;2024-01-11T06:11:56;-4.30;99.90
25208;DHT22;13153;52.316;21.166;2024-01-11T06:14:22;-4.30;99.90
25208;DHT22;13153;52.316;21.166;2024-01-11T06:16:48;-4.30;99.90
25208;DHT22;13153;52.316;21.166;2024-01-11T06:19:14;-4.30;99.90
25208;DHT22;13153;52.316;21.166;2024-01-11T06:21:39;-4.30;99.90
25208;DHT22;13153;52.316;21.166;2024-01-11T06:24:05;-4.30;99.90
25208;DHT22;13153;52.316;21.166;2024-01-11T06:26:31;-4.30;99.90
25208;DHT22;13153;52.316;21.166;2024-01-11T06:28:56;-4.30;99.90
25208;DHT22;13153;52.316;21.166;2024-01-11T06:31:22;-4.30;99.90
25208;DHT22;13153;52.316;21.166;2024-01-11T06:33:48;-4.30;99.90
25208;DHT22;13153;52.316;21.166;2024-01-11T06:36:14;-4.20;99.90
25208;DHT22;13153;52.316;21.166;2024-01-11T06:38:40;-4.20;99.90
25208;DHT22;13153;52.316;21.166;2024-01-11T06:41:06;-4.20;99.90
25208;DHT22;13153;52.316;21.166;2024-01-11T06:43:32;-4.20;99.90
25208;DHT22;13153;52.316;21.166;2024-01-11T06:46:05;-4.20;99.90
25208;DHT22;13153;52.316;21.166;2024-01-11T06:48:31;-4.20;99.90
25208;DHT22;13153;52.316;21.166;2024-01-11T06:50:57;-4.20;99.90
25208;DHT22;13153;52.316;21.166;2024-01-11T06:53:23;-4.10;99.90
25208;DHT22;13153;52.316;21.166;2024-01-11T06:55:49;-4.10;99.90
25208;DHT22;13153;52.316;21.166;2024-01-11T06:58:17;-4.10;99.90
25208;DHT22;13153;52.316;21.166;2024-01-11T07:00:48;-4.10;99.90
25208;DHT22;13153;52.316;21.166;2024-01-11T07:03:15;-4.10;99.90
25208;DHT22;13153;52.316;21.166;2024-01-11T07:05:40;-4.10;99.90
25208;DHT22;13153;52.316;21.166;2024-01-11T07:08:06;-4.10;99.90
25208;DHT22;13153;52.316;21.166;2024-01-11T07:10:32;-4.00;99.90
25208;DHT22;13153;52.316;21.166;2024-01-11T07:13:16;-4.00;99.90
25208;DHT22;13153;52.316;21.166;2024-01-11T07:15:43;-4.00;99.90
25208;DHT22;13153;52.316;21.166;2024-01-11T07:18:09;-4.00;99.90
25208;DHT22;13153;52.316;21.166;2024-01-11T07:20:34;-4.00;99.90
25208;DHT22;13153;52.316;21.166;2024-01-11T07:23:00;-4.10;99.90
25208;DHT22;13153;52.316;21.166;2024-01-11T07:25:26;-4.00;99.90
25208;DHT22;13153;52.316;21.166;2024-01-11T07:27:52;-4.00;99.90
25208;DHT22;13153;52.316;21.166;2024-01-11T07:30:18;-4.00;99.90
25208;DHT22;13153;52.316;21.166;2024-01-11T07:32:44;-3.90;99.90
25208;DHT22;13153;52.316;21.166;2024-01-11T07:35:10;-3.90;99.90
25208;DHT22;13153;52.316;21.166;2024-01-11T07:37:38;-3.90;99.90
25208;DHT22;13153;52.316;21.166;2024-01-11T07:40:05;-3.90;99.90
25208;DHT22;13153;52.316;21.166;2024-01-11T07:42:37;-3.80;99.90
25208;DHT22;13153;52.316;21.166;2024-01-11T07:45:05;-3.80;99.90
25208;DHT22;13153;52.316;21.166;2024-01-11T07:47:35;-3.80;99.90
25208;DHT22;13153;52.316;21.166;2024-01-11T07:50:05;-3.80;99.90
25208;DHT22;13153;52.316;21.166;2024-01-11T07:52:35;-3.80;99.90
25208;DHT22;13153;52.316;21.166;2024-01-11T07:55:03;-3.80;99.90
25208;DHT22;13153;52.316;21.166;2024-01-11T07:57:36;-3.80;99.90
25208;DHT22;13153;52.316;21.166;2024-01-11T08:00:06;-3.70;99.90
25208;DHT22;13153;52.316;21.166;2024-01-11T08:02:35;-3.70;99.90
25208;DHT22;13153;52.316;21.166;2024-01-11T08:05:01;-3.70;99.90
25208;DHT22;13153;52.316;21.166;2024-01-11T08:07:28;-3.60;99.90
25208;DHT22;13153;52.316;21.166;2024-01-11T08:09:54;-3.60;99.90
25208;DHT22;13153;52.316;21.166;2024-01-11T08:12:20;-3.60;99.90
25208;DHT22;13153;52.316;21.166;2024-01-11T08:14:46;-3.60;99.90
25208;DHT22;13153;52.316;21.166;2024-01-11T08:17:13;-3.60;99.90
25208;DHT22;13153;52.316;21.166;2024-01-11T08:19:40;-3.60;99.90
25208;DHT22;13153;52.316;21.166;2024-01-11T08:22:08;-3.60;99.90
25208;DHT22;13153;52.316;21.166;2024-01-11T08:24:35;-3.50;99.90
25208;DHT22;13153;52.316;21.166;2024-01-11T08:27:01;-3.50;99.90
25208;DHT22;13153;52.316;21.166;2024-01-11T08:29:27;-3.60;99.90
25208;DHT22;13153;52.316;21.166;2024-01-11T08:31:53;-3.50;99.90
25208;DHT22;13153;52.316;21.166;2024-01-11T08:34:20;-3.50;99.90
25208;DHT22;13153;52.316;21.166;2024-01-11T08:36:46;-3.50;99.90
25208;DHT22;13153;52.316;21.166;2024-01-11T08:39:13;-3.50;99.90
25208;DHT22;13153;52.316;21.166;2024-01-11T08:41:40;-3.40;99.90
25208;DHT22;13153;52.316;21.166;2024-01-11T08:44:06;-3.40;99.90
25208;DHT22;13153;52.316;21.166;2024-01-11T08:46:32;-3.40;99.90
25208;DHT22;13153;52.316;21.166;2024-01-11T08:49:00;-3.40;99.90
25208;DHT22;13153;52.316;21.166;2024-01-11T08:51:28;-3.40;99.90
25208;DHT22;13153;52.316;21.166;2024-01-11T08:53:55;-3.40;99.90
25208;DHT22;13153;52.316;21.166;2024-01-11T08:56:21;-3.40;99.90
25208;DHT22;13153;52.316;21.166;2024-01-11T08:58:47;-3.30;99.90
25208;DHT22;13153;52.316;21.166;2024-01-11T09:01:14;-3.30;99.90
25208;DHT22;13153;52.316;21.166;2024-01-11T09:03:40;-3.30;99.90
25208;DHT22;13153;52.316;21.166;2024-01-11T09:06:06;-3.30;99.90
25208;DHT22;13153;52.316;21.166;2024-01-11T09:08:32;-3.20;99.90
25208;DHT22;13153;52.316;21.166;2024-01-11T09:10:59;-3.10;99.90
25208;DHT22;13153;52.316;21.166;2024-01-11T09:13:28;-3.10;99.90
25208;DHT22;13153;52.316;21.166;2024-01-11T09:15:54;-3.00;99.90
25208;DHT22;13153;52.316;21.166;2024-01-11T09:18:21;-3.00;99.90
25208;DHT22;13153;52.316;21.166;2024-01-11T09:20:47;-2.90;99.90
25208;DHT22;13153;52.316;21.166;2024-01-11T09:23:14;-2.90;99.90
25208;DHT22;13153;52.316;21.166;2024-01-11T09:25:41;-2.90;99.90
25208;DHT22;13153;52.316;21.166;2024-01-11T09:28:06;-2.80;99.90
25208;DHT22;13153;52.316;21.166;2024-01-11T09:30:33;-2.80;99.90
25208;DHT22;13153;52.316;21.166;2024-01-11T09:32:58;-2.70;99.90
25208;DHT22;13153;52.316;21.166;2024-01-11T09:35:24;-2.70;99.90
25208;DHT22;13153;52.316;21.166;2024-01-11T09:37:51;-2.70;99.90
25208;DHT22;13153;52.316;21.166;2024-01-11T09:40:18;-2.70;99.90
25208;DHT22;13153;52.316;21.166;2024-01-11T09:42:44;-2.70;99.90
25208;DHT22;13153;52.316;21.166;2024-01-11T09:45:14;-2.70;99.90
25208;DHT22;13153;52.316;21.166;2024-01-11T09:47:42;-2.70;99.90
25208;DHT22;13153;52.316;21.166;2024-01-11T09:50:11;-2.60;99.90
25208;DHT22;13153;52.316;21.166;2024-01-11T09:52:50;-2.60;99.90
25208;DHT22;13153;52.316;21.166;2024-01-11T09:55:17;-2.60;99.90
25208;DHT22;13153;52.316;21.166;2024-01-11T09:57:47;-2.50;99.90
25208;DHT22;13153;52.316;21.166;2024-01-11T10:00:19;-2.50;99.90
25208;DHT22;13153;52.316;21.166;2024-01-11T10:02:48;-2.50;99.90
25208;DHT22;13153;52.316;21.166;2024-01-11T10:05:17;-2.50;99.90
25208;DHT22;13153;52.316;21.166;2024-01-11T10:07:44;-2.50;99.90
25208;DHT22;13153;52.316;21.166;2024-01-11T10:10:11;-2.50;99.90
25208;DHT22;13153;52.316;21.166;2024-01-11T10:12:40;-2.50;99.90
25208;DHT22;13153;52.316;21.166;2024-01-11T10:15:07;-2.40;99.90
25208;DHT22;13153;52.316;21.166;2024-01-11T10:17:36;-2.40;99.90
25208;DHT22;13153;52.316;21.166;2024-01-11T10:20:06;-2.40;99.90
25208;DHT22;13153;52.316;21.166;2024-01-11T10:22:36;-2.40;99.90
25208;DHT22;13153;52.316;21.166;2024-01-11T10:25:12;-2.30;99.90
25208;DHT22;13153;52.316;21.166;2024-01-11T10:27:46;-2.20;99.90
25208;DHT22;13153;52.316;21.166;2024-01-11T10:30:12;-2.20;99.90
25208;DHT22;13153;52.316;21.166;2024-01-11T10:32:44;-2.20;99.90
25208;DHT22;13153;52.316;21.166;2024-01-11T10:35:11;-2.10;99.90
25208;DHT22;13153;52.316;21.166;2024-01-11T10:37:37;-2.10;99.90
25208;DHT22;13153;52.316;21.166;2024-01-11T10:40:07;-2.10;99.90
25208;DHT22;13153;52.316;21.166;2024-01-11T10:42:50;-2.00;99.90
25208;DHT22;13153;52.316;21.166;2024-01-11T10:45:19;-2.00;99.90
25208;DHT22;13153;52.316;21.166;2024-01-11T10:48:01;-2.00;99.90
25208;DHT22;13153;52.316;21.166;2024-01-11T10:50:30;-2.00;99.90
25208;DHT22;13153;52.316;21.166;2024-01-11T10:53:09;-2.00;99.90
25208;DHT22;13153;52.316;21.166;2024-01-11T10:55:50;-2.00;99.90
25208;DHT22;13153;52.316;21.166;2024-01-11T10:58:16;-2.00;99.90
25208;DHT22;13153;52.316;21.166;2024-01-11T11:00:45;-1.90;99.90
25208;DHT22;13153;52.316;21.166;2024-01-11T11:03:12;-1.90;99.90
25208;DHT22;13153;52.316;21.166;2024-01-11T11:05:41;-1.90;99.90
25208;DHT22;13153;52.316;21.166;2024-01-11T11:08:09;-1.90;99.90
25208;DHT22;13153;52.316;21.166;2024-01-11T11:10:39;-1.90;99.90
25208;DHT22;13153;52.316;21.166;2024-01-11T11:13:08;-1.90;99.90
25208;DHT22;13153;52.316;21.166;2024-01-11T11:15:35;-1.90;99.90
25208;DHT22;13153;52.316;21.166;2024-01-11T11:18:03;-1.80;99.90
25208;DHT22;13153;52.316;21.166;2024-01-11T11:20:31;-1.80;99.90
25208;DHT22;13153;52.316;21.166;2024-01-11T11:23:07;-1.70;99.90
25208;DHT22;13153;52.316;21.166;2024-01-11T11:25:40;-1.60;99.90
25208;DHT22;13153;52.316;21.166;2024-01-11T11:28:06;-1.60;99.90
25208;DHT22;13153;52.316;21.166;2024-01-11T11:30:42;-1.60;99.90
25208;DHT22;13153;52.316;21.166;2024-01-11T11:33:20;-1.60;99.90
25208;DHT22;13153;52.316;21.166;2024-01-11T11:35:50;-1.60;99.90
25208;DHT22;13153;52.316;21.166;2024-01-11T11:38:20;-1.60;99.90
25208;DHT22;13153;52.316;21.166;2024-01-11T11:40:48;-1.60;99.90
25208;DHT22;13153;52.316;21.166;2024-01-11T11:43:17;-1.60;99.90
25208;DHT22;13153;52.316;21.166;2024-01-11T11:45:46;-1.60;99.90
25208;DHT22;13153;52.316;21.166;2024-01-11T11:51:10;-1.60;99.90
25208;DHT22;13153;52.316;21.166;2024-01-11T11:53:38;-1.60;99.90
25208;DHT22;13153;52.316;21.166;2024-01-11T11:56:05;-1.60;99.90
25208;DHT22;13153;52.316;21.166;2024-01-11T11:58:33;-1.50;99.90
25208;DHT22;13153;52.316;21.166;2024-01-11T12:01:00;-1.60;99.90
25208;DHT22;13153;52.316;21.166;2024-01-11T12:03:35;-1.50;99.90
25208;DHT22;13153;52.316;21.166;2024-01-11T12:06:03;-1.50;99.90
25208;DHT22;13153;52.316;21.166;2024-01-11T12:08:34;-1.50;99.90
25208;DHT22;13153;52.316;21.166;2024-01-11T12:11:01;-1.50;99.90
25208;DHT22;13153;52.316;21.166;2024-01-11T12:13:28;-1.60;99.90
25208;DHT22;13153;52.316;21.166;2024-01-11T12:15:54;-1.50;99.90
25208;DHT22;13153;52.316;21.166;2024-01-11T12:18:21;-1.50;99.90
25208;DHT22;13153;52.316;21.166;2024-01-11T12:20:47;-1.50;99.90
25208;DHT22;13153;52.316;21.166;2024-01-11T12:23:13;-1.40;99.90
25208;DHT22;13153;52.316;21.166;2024-01-11T12:25:42;-1.40;99.90
25208;DHT22;13153;52.316;21.166;2024-01-11T12:28:07;-1.40;99.90
25208;DHT22;13153;52.316;21.166;2024-01-11T12:30:34;-1.40;99.90
25208;DHT22;13153;52.316;21.166;2024-01-11T12:33:00;-1.30;99.90
25208;DHT22;13153;52.316;21.166;2024-01-11T12:35:27;-1.30;99.90
25208;DHT22;13153;52.316;21.166;2024-01-11T12:38:01;-1.30;99.90
25208;DHT22;13153;52.316;21.166;2024-01-11T12:40:32;-1.30;99.90
25208;DHT22;13153;52.316;21.166;2024-01-11T12:43:10;-1.30;99.90
25208;DHT22;13153;52.316;21.166;2024-01-11T12:45:37;-1.30;99.90
25208;DHT22;13153;52.316;21.166;2024-01-11T12:48:07;-1.30;99.90
25208;DHT22;13153;52.316;21.166;2024-01-11T12:50:34;-1.40;99.90
25208;DHT22;13153;52.316;21.166;2024-01-11T12:53:13;-1.30;99.90
25208;DHT22;13153;52.316;21.166;2024-01-11T12:56:02;-1.30;99.90
25208;DHT22;13153;52.316;21.166;2024-01-11T12:58:33;-1.30;99.90
25208;DHT22;13153;52.316;21.166;2024-01-11T13:00:59;-1.30;99.90
25208;DHT22;13153;52.316;21.166;2024-01-11T13:03:25;-1.30;99.90
25208;DHT22;13153;52.316;21.166;2024-01-11T13:05:53;-1.30;99.90
25208;DHT22;13153;52.316;21.166;2024-01-11T13:08:18;-1.20;99.90
25208;DHT22;13153;52.316;21.166;2024-01-11T13:10:44;-1.20;99.90
25208;DHT22;13153;52.316;21.166;2024-01-11T13:13:12;-1.20;99.90
25208;DHT22;13153;52.316;21.166;2024-01-11T13:15:39;-1.10;99.90
25208;DHT22;13153;52.316;21.166;2024-01-11T13:18:06;-1.20;99.90
25208;DHT22;13153;52.316;21.166;2024-01-11T13:20:31;-1.20;99.90
25208;DHT22;13153;52.316;21.166;2024-01-11T13:23:18;-1.10;99.90
25208;DHT22;13153;52.316;21.166;2024-01-11T13:25:47;-1.10;99.90
25208;DHT22;13153;52.316;21.166;2024-01-11T13:28:15;-1.10;99.90
25208;DHT22;13153;52.316;21.166;2024-01-11T13:30:43;-1.10;99.90
25208;DHT22;13153;52.316;21.166;2024-01-11T13:33:11;-1.10;99.90
25208;DHT22;13153;52.316;21.166;2024-01-11T13:35:40;-1.10;99.90
25208;DHT22;13153;52.316;21.166;2024-01-11T13:38:08;-1.10;99.90
25208;DHT22;13153;52.316;21.166;2024-01-11T13:40:35;-1.10;99.90
25208;DHT22;13153;52.316;21.166;2024-01-11T13:43:01;-1.10;99.90
25208;DHT22;13153;52.316;21.166;2024-01-11T13:45:28;-1.00;99.90
25208;DHT22;13153;52.316;21.166;2024-01-11T13:47:55;-1.00;99.90
25208;DHT22;13153;52.316;21.166;2024-01-11T13:50:22;-1.10;99.90
25208;DHT22;13153;52.316;21.166;2024-01-11T13:52:51;-1.00;99.90
25208;DHT22;13153;52.316;21.166;2024-01-11T13:55:18;-1.00;99.90
25208;DHT22;13153;52.316;21.166;2024-01-11T13:57:44;-1.00;99.90
25208;DHT22;13153;52.316;21.166;2024-01-11T14:00:10;-1.00;99.90
25208;DHT22;13153;52.316;21.166;2024-01-11T14:02:37;-1.00;99.90
25208;DHT22;13153;52.316;21.166;2024-01-11T14:05:08;-1.00;99.90
25208;DHT22;13153;52.316;21.166;2024-01-11T14:07:41;-0.90;99.90
25208;DHT22;13153;52.316;21.166;2024-01-11T14:10:09;-0.90;99.90
25208;DHT22;13153;52.316;21.166;2024-01-11T14:12:39;-0.90;99.90
25208;DHT22;13153;52.316;21.166;2024-01-11T14:15:07;-0.90;99.90
25208;DHT22;13153;52.316;21.166;2024-01-11T14:17:38;-0.90;99.90
25208;DHT22;13153;52.316;21.166;2024-01-11T14:20:05;-0.90;99.90
25208;DHT22;13153;52.316;21.166;2024-01-11T14:22:36;-0.90;99.90
25208;DHT22;13153;52.316;21.166;2024-01-11T14:25:02;-0.90;99.90
25208;DHT22;13153;52.316;21.166;2024-01-11T14:27:29;-0.80;99.90
25208;DHT22;13153;52.316;21.166;2024-01-11T14:29:56;-0.90;99.90
25208;DHT22;13153;52.316;21.166;2024-01-11T14:32:22;-0.80;99.90
25208;DHT22;13153;52.316;21.166;2024-01-11T14:34:48;-0.80;99.90
25208;DHT22;13153;52.316;21.166;2024-01-11T14:37:14;-0.80;99.90
25208;DHT22;13153;52.316;21.166;2024-01-11T14:39:40;-0.80;99.90
25208;DHT22;13153;52.316;21.166;2024-01-11T14:42:06;-0.80;99.90
25208;DHT22;13153;52.316;21.166;2024-01-11T14:44:35;-0.80;99.90
25208;DHT22;13153;52.316;21.166;2024-01-11T14:47:02;-0.80;99.90
25208;DHT22;13153;52.316;21.166;2024-01-11T14:49:29;-0.70;99.90
25208;DHT22;13153;52.316;21.166;2024-01-11T14:51:55;-0.70;99.90
25208;DHT22;13153;52.316;21.166;2024-01-11T14:54:20;-0.70;99.90
25208;DHT22;13153;52.316;21.166;2024-01-11T14:56:47;-0.70;99.90
25208;DHT22;13153;52.316;21.166;2024-01-11T14:59:15;-0.70;99.90
25208;DHT22;13153;52.316;21.166;2024-01-11T15:01:41;-0.60;99.90
25208;DHT22;13153;52.316;21.166;2024-01-11T15:04:07;-0.60;99.90
25208;DHT22;13153;52.316;21.166;2024-01-11T15:06:32;-0.60;99.90
25208;DHT22;13153;52.316;21.166;2024-01-11T15:08:58;-0.60;99.90
25208;DHT22;13153;52.316;21.166;2024-01-11T15:11:24;-0.60;99.90
25208;DHT22;13153;52.316;21.166;2024-01-11T15:13:50;-0.50;99.90
25208;DHT22;13153;52.316;21.166;2024-01-11T15:16:16;-0.50;99.90
25208;DHT22;13153;52.316;21.166;2024-01-11T15:18:42;-0.50;99.90